»·PEaware :: UPS1852 KSEA-KSFO

UPS1852 :: KSEA-KSFO

FLIGHT INFORMATION

Flight Status: Arrived
Operator:
United Parcel Service
More flights by this operator :: More flights under this callsign
Pilot: Jessica F. (17029)
Aircraft: BOEING 757-200
(B752)
More flights by this aircraft type
Origin: KSEA Seattle-Tacoma Intl
United States
Destination: KSFO San Francisco Intl
United States
More flights between these airports :: More routes between these airports
Route: HAROB6 FEPOT Q3 FOWND MLBEC BDEGA2
File this flight plan on PilotEdge
Remarks: PBN / A1B3B4B5C4D4O4 DOF / 180514 REG / N75FJF EET / KZOA0055 OPR / UPS PER / D RMK / TCAS SIMBRIEF
Altitude:
(Current/Filed)
39,000ft
Speed:
(Current/Filed)
434kts
Departed: 13-May-18 06:12 PM
Arrived: 13-May-18 08:08 PM
Distance/Time
Traveled:
589nm/1:56
Distance/Time
To Go:
Arrived

Flight Plot

Page will automatically refresh every two minutes.

Flight plan parsing failed; only flown route is shown


Map Options




Map Legend


Flown Route
Filed Route
Departure Airport
Arrival Airport
Navaid (VOR, NDB)
Fix

Horizontal Profiles

Position Reports

Time Latitude Longitude Heading Altitude Ground
Speed
13-May-18 17:15 47.462504 -122.300057 359 338ft 0kts
13-May-18 17:16 47.462504 -122.300057 359 338ft 0kts
13-May-18 17:17 47.462504 -122.300057 359 338ft 0kts
13-May-18 17:18 47.462504 -122.300057 359 338ft 0kts
13-May-18 17:19 47.462504 -122.300057 359 338ft 0kts
13-May-18 17:20 47.462504 -122.300057 359 338ft 0kts
13-May-18 17:21 47.462504 -122.300057 359 338ft 0kts
13-May-18 17:22 47.462504 -122.300057 359 338ft 0kts
13-May-18 17:23 47.462504 -122.300057 359 338ft 0kts
13-May-18 17:24 47.462504 -122.300057 359 338ft 0kts
13-May-18 17:25 47.462504 -122.300057 359 338ft 0kts
13-May-18 17:26 47.462504 -122.300057 359 338ft 0kts
13-May-18 17:27 47.462504 -122.300057 359 338ft 0kts
13-May-18 17:28 47.462504 -122.300057 359 338ft 0kts
13-May-18 17:34 47.462504 -122.300057 359 338ft 0kts
13-May-18 17:35 47.462504 -122.300057 359 338ft 0kts
13-May-18 17:36 47.462504 -122.300057 359 338ft 0kts
13-May-18 17:37 47.462504 -122.300057 359 338ft 0kts
13-May-18 17:38 47.462504 -122.300057 359 338ft 0kts
13-May-18 17:39 47.462504 -122.300057 359 338ft 0kts
13-May-18 17:40 47.462504 -122.300057 359 338ft 0kts
13-May-18 17:41 47.462504 -122.300057 359 338ft 0kts
13-May-18 17:42 47.462504 -122.300057 359 338ft 0kts
13-May-18 17:43 47.462504 -122.300057 359 338ft 0kts
13-May-18 17:44 47.462504 -122.300057 359 338ft 0kts
13-May-18 17:45 47.462504 -122.300057 359 338ft 0kts
13-May-18 17:46 47.462504 -122.300057 359 338ft 0kts
13-May-18 17:47 47.462504 -122.300057 359 338ft 0kts
13-May-18 17:48 47.462504 -122.300057 359 338ft 0kts
13-May-18 17:49 47.462504 -122.300057 359 338ft 0kts
13-May-18 17:50 47.462504 -122.300057 359 338ft 0kts
13-May-18 17:51 47.462504 -122.300057 359 338ft 0kts
13-May-18 17:52 47.462504 -122.300057 359 338ft 0kts
13-May-18 17:53 47.462504 -122.300057 359 338ft 0kts
13-May-18 17:54 47.462504 -122.300057 359 338ft 0kts
13-May-18 17:55 47.462396 -122.300056 359 338ft 2kts
13-May-18 17:56 47.461876 -122.299924 317 338ft 2kts
13-May-18 17:57 47.461743 -122.299429 269 338ft 0kts
13-May-18 17:58 47.461743 -122.299429 269 338ft 0kts
13-May-18 17:59 47.461743 -122.299429 269 338ft 0kts
13-May-18 18:00 47.461743 -122.299429 269 338ft 0kts
13-May-18 18:01 47.461743 -122.299429 269 338ft 0kts
13-May-18 18:02 47.461739 -122.300447 269 338ft 6kts
13-May-18 18:03 47.461760 -122.303606 272 338ft 7kts
13-May-18 18:04 47.459498 -122.304965 180 338ft 22kts
13-May-18 18:05 47.452968 -122.305027 180 338ft 21kts
13-May-18 18:06 47.448290 -122.306285 180 338ft 14kts
13-May-18 18:07 47.443745 -122.306338 180 338ft 18kts
13-May-18 18:08 47.438308 -122.306401 181 338ft 22kts
13-May-18 18:09 47.433890 -122.305594 180 338ft 14kts
13-May-18 18:10 47.431869 -122.306386 240 338ft 0kts
13-May-18 18:11 47.431802 -122.306631 255 338ft 8kts
13-May-18 18:12 47.451046 -122.307997 358 559ft 178kts
13-May-18 18:13 47.504510 -122.307719 357 2680ft 251kts
13-May-18 18:14 47.567098 -122.323406 325 6058ft 262kts
13-May-18 18:15 47.608578 -122.383207 283 8908ft 271kts
13-May-18 18:16 47.614039 -122.474299 255 10539ft 323kts
13-May-18 18:17 47.557946 -122.569165 224 13044ft 363kts
13-May-18 18:18 47.495921 -122.659092 225 14994ft 382kts
13-May-18 18:19 47.428394 -122.761204 225 14984ft 381kts
13-May-18 18:20 47.358594 -122.866966 226 17197ft 395kts
13-May-18 18:21 47.286702 -122.975540 226 19728ft 412kts
13-May-18 18:22 47.208245 -123.078967 218 21984ft 429kts
13-May-18 18:23 47.120547 -123.174316 213 24066ft 444kts
13-May-18 18:24 47.008061 -123.216063 178 26017ft 458kts
13-May-18 18:25 46.889967 -123.212411 178 27774ft 469kts
13-May-18 18:26 46.767218 -123.208365 177 29329ft 480kts
13-May-18 18:27 46.642963 -123.204240 177 30800ft 487kts
13-May-18 18:28 46.517592 -123.200095 178 32599ft 483kts
13-May-18 18:29 46.389375 -123.195881 177 34247ft 478kts
13-May-18 18:30 46.265385 -123.191871 175 36267ft 457kts
13-May-18 18:31 46.145474 -123.187922 175 37941ft 434kts
13-May-18 18:32 46.029556 -123.184117 175 38167ft 443kts
13-May-18 18:33 45.910876 -123.180258 177 38853ft 437kts
13-May-18 18:34 45.795401 -123.176527 178 38940ft 441kts
13-May-18 18:35 45.675338 -123.172705 178 38888ft 449kts
13-May-18 18:36 45.554574 -123.168846 178 38912ft 454kts
13-May-18 18:37 45.432567 -123.164965 178 38912ft 460kts
13-May-18 18:38 45.310920 -123.161112 178 38916ft 466kts
13-May-18 18:39 45.186976 -123.157201 178 38916ft 472kts
13-May-18 18:40 45.058975 -123.153181 178 38917ft 477kts
13-May-18 18:41 44.931556 -123.149195 178 38918ft 483kts
13-May-18 18:42 44.804561 -123.145257 178 38909ft 486kts
13-May-18 18:43 44.678042 -123.141316 178 38912ft 488kts
13-May-18 18:44 44.548360 -123.137320 178 38939ft 488kts
13-May-18 18:45 44.416734 -123.132851 178 38940ft 488kts
13-May-18 18:46 44.287140 -123.128215 178 38941ft 488kts
13-May-18 18:47 44.156400 -123.123562 178 38945ft 488kts
13-May-18 18:48 44.026450 -123.118981 177 38943ft 487kts
13-May-18 18:49 43.897680 -123.114412 178 38944ft 488kts
13-May-18 18:50 43.768863 -123.109897 178 38938ft 488kts
13-May-18 18:51 43.637449 -123.105303 178 38938ft 487kts
13-May-18 18:52 43.505770 -123.100721 178 38913ft 488kts
13-May-18 18:53 43.375725 -123.096229 177 38915ft 487kts
13-May-18 18:54 43.245963 -123.091732 177 38915ft 488kts
13-May-18 18:55 43.119865 -123.087405 177 38916ft 487kts
13-May-18 18:56 42.990293 -123.082973 177 38917ft 487kts
13-May-18 18:57 42.862036 -123.078603 177 38910ft 487kts
13-May-18 18:58 42.732244 -123.074196 177 39014ft 486kts
13-May-18 18:59 42.610608 -123.070084 177 39020ft 487kts
13-May-18 19:00 42.478444 -123.065639 178 38909ft 487kts
13-May-18 19:01 42.353186 -123.061577 178 38912ft 487kts
13-May-18 19:02 42.222547 -123.057356 178 38915ft 488kts
13-May-18 19:03 42.135470 -123.054549 178 38916ft 488kts
13-May-18 19:04 41.966536 -123.049134 178 38919ft 488kts
13-May-18 19:05 41.838950 -123.045064 178 38909ft 488kts
13-May-18 19:06 41.709066 -123.040935 178 38965ft 488kts
13-May-18 19:07 41.591694 -123.037219 178 38966ft 488kts
13-May-18 19:08 41.461031 -123.033098 178 38967ft 488kts
13-May-18 19:09 41.329899 -123.028982 178 39075ft 488kts
13-May-18 19:10 41.238326 -123.026208 178 39077ft 488kts
13-May-18 19:11 41.075971 -123.021300 178 39078ft 488kts
13-May-18 19:12 40.955548 -123.017677 178 39079ft 488kts
13-May-18 19:13 40.821558 -123.013660 178 39073ft 488kts
13-May-18 19:14 40.691215 -123.009762 179 38966ft 488kts
13-May-18 19:15 40.561317 -123.005907 179 38966ft 488kts
13-May-18 19:16 40.433197 -123.002109 179 38967ft 488kts
13-May-18 19:17 40.307609 -122.998401 179 38968ft 488kts
13-May-18 19:18 40.177636 -122.994579 179 38956ft 488kts
13-May-18 19:19 40.049123 -122.990815 179 38916ft 488kts
13-May-18 19:20 39.927044 -122.987251 179 38916ft 488kts
13-May-18 19:21 39.813380 -122.983937 179 38898ft 469kts
13-May-18 19:22 39.693485 -122.980467 179 38299ft 453kts
13-May-18 19:23 39.574887 -122.977015 181 37781ft 452kts
13-May-18 19:24 39.456424 -122.973632 181 37515ft 452kts
13-May-18 19:25 39.339144 -122.970273 181 36894ft 454kts
13-May-18 19:26 39.219181 -122.966847 181 35252ft 456kts
13-May-18 19:27 39.098034 -122.963413 180 33112ft 460kts
13-May-18 19:28 38.979430 -122.961049 180 31920ft 462kts
13-May-18 19:29 38.885240 -122.958587 176 30435ft 457kts
13-May-18 19:30 38.769058 -122.927507 168 28107ft 453kts
13-May-18 19:31 38.654918 -122.893877 167 25884ft 442kts
13-May-18 19:32 38.547810 -122.862319 167 24018ft 416kts
13-May-18 19:33 38.446623 -122.832546 167 22504ft 397kts
13-May-18 19:34 38.348805 -122.803851 167 21029ft 385kts
13-May-18 19:35 38.251445 -122.775353 166 19519ft 376kts
13-May-18 19:36 38.155211 -122.747316 167 18776ft 375kts
13-May-18 19:37 38.060505 -122.719825 166 17111ft 366kts
13-May-18 19:38 37.967768 -122.692967 166 15417ft 357kts
13-May-18 19:39 37.884373 -122.656337 140 13798ft 347kts
13-May-18 19:40 37.813682 -122.582208 139 12076ft 340kts
13-May-18 19:41 37.746079 -122.510727 140 11040ft 311kts
13-May-18 19:42 37.690016 -122.451168 140 11045ft 299kts
13-May-18 19:43 37.629369 -122.386755 141 11055ft 294kts
13-May-18 19:44 37.561132 -122.336924 154 9461ft 304kts
13-May-18 19:45 37.488879 -122.290969 154 7573ft 310kts
13-May-18 19:46 37.426239 -122.236948 115 5970ft 266kts
13-May-18 19:47 37.399532 -122.153848 112 5955ft 268kts
13-May-18 19:48 37.372871 -122.071585 113 5956ft 272kts
13-May-18 19:49 37.344977 -121.991909 115 5955ft 250kts
13-May-18 19:50 37.317518 -121.915383 113 5946ft 250kts
13-May-18 19:51 37.290124 -121.839053 113 5971ft 248kts
13-May-18 19:52 37.262633 -121.762074 112 5931ft 255kts
13-May-18 19:53 37.238860 -121.683853 84 5944ft 252kts
13-May-18 19:54 37.284797 -121.650700 324 5947ft 232kts
13-May-18 19:55 37.323646 -121.708013 293 5942ft 232kts
13-May-18 19:56 37.346907 -121.779544 292 5933ft 230kts
13-May-18 19:57 37.377923 -121.844851 302 5959ft 229kts
13-May-18 19:58 37.410063 -121.908626 300 5969ft 226kts
13-May-18 19:59 37.443421 -121.970813 302 5986ft 227kts
13-May-18 20:00 37.477223 -122.032861 301 5954ft 234kts
13-May-18 20:01 37.510690 -122.093639 294 5626ft 218kts
13-May-18 20:02 37.532233 -122.160320 294 4005ft 204kts
13-May-18 20:03 37.553083 -122.212761 295 3982ft 147kts
13-May-18 20:04 37.573541 -122.261908 296 1902ft 178kts
13-May-18 20:05 37.592571 -122.307201 295 943ft 141kts
13-May-18 20:06 37.609222 -122.346728 294 218ft 120kts
13-May-18 20:07 37.620731 -122.374320 297 23ft 44kts
13-May-18 20:08 37.622166 -122.380247 276 23ft 5kts
13-May-18 20:09 37.625081 -122.381352 341 23ft 0kts
13-May-18 20:10 37.628740 -122.389827 297 23ft 38kts
13-May-18 20:11 37.633303 -122.391636 21 23ft 20kts
13-May-18 20:12 37.637548 -122.389387 56 23ft 6kts
13-May-18 20:13 37.637614 -122.388768 87 23ft 0kts

Navigation Log

Ident Type
Flight plan parsing failed, navigation log unavailable